sensor_id;sensor_type;location;lat;lon;timestamp;P1;durP1;ratioP1;P2;durP2;ratioP2
18879;SDS011;9572;52.378;13.404;2024-02-14T00:00:06;8.80;;;5.80;;
18879;SDS011;9572;52.378;13.404;2024-02-14T00:02:37;9.27;;;5.37;;
18879;SDS011;9572;52.378;13.404;2024-02-14T00:05:04;7.47;;;4.33;;
18879;SDS011;9572;52.378;13.404;2024-02-14T00:07:31;7.87;;;5.10;;
18879;SDS011;9572;52.378;13.404;2024-02-14T00:09:58;8.53;;;5.20;;
18879;SDS011;9572;52.378;13.404;2024-02-14T00:12:27;6.50;;;4.67;;
18879;SDS011;9572;52.378;13.404;2024-02-14T00:14:54;8.07;;;4.90;;
18879;SDS011;9572;52.378;13.404;2024-02-14T00:17:20;6.57;;;4.60;;
18879;SDS011;9572;52.378;13.404;2024-02-14T00:19:47;5.93;;;4.20;;
18879;SDS011;9572;52.378;13.404;2024-02-14T00:22:14;8.03;;;4.57;;
18879;SDS011;9572;52.378;13.404;2024-02-14T00:24:42;7.63;;;4.50;;
18879;SDS011;9572;52.378;13.404;2024-02-14T00:27:09;9.27;;;4.67;;
18879;SDS011;9572;52.378;13.404;2024-02-14T00:29:37;5.37;;;3.73;;
18879;SDS011;9572;52.378;13.404;2024-02-14T00:32:04;6.23;;;4.40;;
18879;SDS011;9572;52.378;13.404;2024-02-14T00:34:31;5.73;;;4.27;;
18879;SDS011;9572;52.378;13.404;2024-02-14T00:36:58;5.50;;;3.87;;
18879;SDS011;9572;52.378;13.404;2024-02-14T00:39:25;5.70;;;3.70;;
18879;SDS011;9572;52.378;13.404;2024-02-14T00:41:52;5.93;;;4.30;;
18879;SDS011;9572;52.378;13.404;2024-02-14T00:44:20;6.17;;;4.07;;
18879;SDS011;9572;52.378;13.404;2024-02-14T00:46:48;8.57;;;5.30;;
18879;SDS011;9572;52.378;13.404;2024-02-14T00:49:15;5.50;;;3.80;;
18879;SDS011;9572;52.378;13.404;2024-02-14T00:51:42;6.57;;;4.40;;
18879;SDS011;9572;52.378;13.404;2024-02-14T00:54:09;6.63;;;4.50;;
18879;SDS011;9572;52.378;13.404;2024-02-14T00:56:35;5.23;;;4.07;;
18879;SDS011;9572;52.378;13.404;2024-02-14T00:59:02;7.70;;;4.73;;
18879;SDS011;9572;52.378;13.404;2024-02-14T01:01:29;9.17;;;4.73;;
18879;SDS011;9572;52.378;13.404;2024-02-14T01:03:57;5.23;;;3.93;;
18879;SDS011;9572;52.378;13.404;2024-02-14T01:06:24;7.67;;;4.57;;
18879;SDS011;9572;52.378;13.404;2024-02-14T01:08:51;6.63;;;4.50;;
18879;SDS011;9572;52.378;13.404;2024-02-14T01:11:18;6.87;;;4.60;;
18879;SDS011;9572;52.378;13.404;2024-02-14T01:13:45;6.47;;;4.30;;
18879;SDS011;9572;52.378;13.404;2024-02-14T01:16:12;7.23;;;4.37;;
18879;SDS011;9572;52.378;13.404;2024-02-14T01:18:39;6.33;;;4.00;;
18879;SDS011;9572;52.378;13.404;2024-02-14T01:21:07;7.60;;;4.53;;
18879;SDS011;9572;52.378;13.404;2024-02-14T01:23:33;6.10;;;4.37;;
18879;SDS011;9572;52.378;13.404;2024-02-14T01:26:01;5.73;;;4.20;;
18879;SDS011;9572;52.378;13.404;2024-02-14T01:28:28;6.20;;;4.23;;
18879;SDS011;9572;52.378;13.404;2024-02-14T01:30:55;7.53;;;4.60;;
18879;SDS011;9572;52.378;13.404;2024-02-14T01:33:22;7.10;;;4.40;;
18879;SDS011;9572;52.378;13.404;2024-02-14T01:35:49;7.30;;;4.30;;
18879;SDS011;9572;52.378;13.404;2024-02-14T01:38:17;7.93;;;4.60;;
18879;SDS011;9572;52.378;13.404;2024-02-14T01:40:44;5.90;;;3.90;;
18879;SDS011;9572;52.378;13.404;2024-02-14T01:43:11;7.63;;;5.20;;
18879;SDS011;9572;52.378;13.404;2024-02-14T01:45:39;6.53;;;4.83;;
18879;SDS011;9572;52.378;13.404;2024-02-14T01:48:06;7.70;;;4.80;;
18879;SDS011;9572;52.378;13.404;2024-02-14T01:50:34;12.77;;;5.50;;
18879;SDS011;9572;52.378;13.404;2024-02-14T01:53:02;7.50;;;5.20;;
18879;SDS011;9572;52.378;13.404;2024-02-14T01:55:31;8.57;;;4.73;;
18879;SDS011;9572;52.378;13.404;2024-02-14T01:57:59;7.87;;;4.90;;
18879;SDS011;9572;52.378;13.404;2024-02-14T02:00:28;5.93;;;4.70;;
18879;SDS011;9572;52.378;13.404;2024-02-14T02:02:56;6.87;;;4.40;;
18879;SDS011;9572;52.378;13.404;2024-02-14T02:08:46;7.10;;;4.43;;
18879;SDS011;9572;52.378;13.404;2024-02-14T02:11:14;10.43;;;4.73;;
18879;SDS011;9572;52.378;13.404;2024-02-14T02:13:41;7.97;;;5.30;;
18879;SDS011;9572;52.378;13.404;2024-02-14T02:16:08;8.67;;;5.23;;
18879;SDS011;9572;52.378;13.404;2024-02-14T02:18:36;11.83;;;5.70;;
18879;SDS011;9572;52.378;13.404;2024-02-14T02:21:03;8.60;;;4.97;;
18879;SDS011;9572;52.378;13.404;2024-02-14T02:23:33;9.00;;;4.90;;
18879;SDS011;9572;52.378;13.404;2024-02-14T02:26:00;9.83;;;5.30;;
18879;SDS011;9572;52.378;13.404;2024-02-14T02:28:27;7.57;;;4.73;;
18879;SDS011;9572;52.378;13.404;2024-02-14T02:30:54;6.13;;;4.57;;
18879;SDS011;9572;52.378;13.404;2024-02-14T02:33:20;7.23;;;5.17;;
18879;SDS011;9572;52.378;13.404;2024-02-14T02:35:47;7.63;;;5.27;;
18879;SDS011;9572;52.378;13.404;2024-02-14T02:38:15;8.53;;;4.67;;
18879;SDS011;9572;52.378;13.404;2024-02-14T02:40:44;8.93;;;4.53;;
18879;SDS011;9572;52.378;13.404;2024-02-14T02:43:10;10.03;;;4.80;;
18879;SDS011;9572;52.378;13.404;2024-02-14T02:45:37;9.97;;;4.70;;
18879;SDS011;9572;52.378;13.404;2024-02-14T02:48:05;8.37;;;4.73;;
18879;SDS011;9572;52.378;13.404;2024-02-14T02:50:32;11.70;;;6.20;;
18879;SDS011;9572;52.378;13.404;2024-02-14T02:52:59;11.20;;;6.23;;
18879;SDS011;9572;52.378;13.404;2024-02-14T02:55:26;8.23;;;4.97;;
18879;SDS011;9572;52.378;13.404;2024-02-14T02:57:54;8.00;;;4.70;;
18879;SDS011;9572;52.378;13.404;2024-02-14T03:00:21;8.40;;;4.97;;
18879;SDS011;9572;52.378;13.404;2024-02-14T03:05:58;8.00;;;4.83;;
18879;SDS011;9572;52.378;13.404;2024-02-14T03:08:25;7.70;;;4.80;;
18879;SDS011;9572;52.378;13.404;2024-02-14T03:10:52;6.70;;;4.50;;
18879;SDS011;9572;52.378;13.404;2024-02-14T03:13:20;8.70;;;5.27;;
18879;SDS011;9572;52.378;13.404;2024-02-14T03:15:47;8.67;;;4.90;;
18879;SDS011;9572;52.378;13.404;2024-02-14T03:18:14;6.90;;;4.57;;
18879;SDS011;9572;52.378;13.404;2024-02-14T03:20:41;6.20;;;4.70;;
18879;SDS011;9572;52.378;13.404;2024-02-14T03:23:08;7.13;;;5.10;;
18879;SDS011;9572;52.378;13.404;2024-02-14T03:25:35;9.90;;;5.53;;
18879;SDS011;9572;52.378;13.404;2024-02-14T03:28:02;7.97;;;5.27;;
18879;SDS011;9572;52.378;13.404;2024-02-14T03:30:35;9.47;;;6.03;;
18879;SDS011;9572;52.378;13.404;2024-02-14T03:33:02;8.40;;;5.60;;
18879;SDS011;9572;52.378;13.404;2024-02-14T03:35:29;11.60;;;5.63;;
18879;SDS011;9572;52.378;13.404;2024-02-14T03:37:56;9.30;;;5.40;;
18879;SDS011;9572;52.378;13.404;2024-02-14T03:40:23;7.77;;;5.50;;
18879;SDS011;9572;52.378;13.404;2024-02-14T03:42:50;8.67;;;5.83;;
18879;SDS011;9572;52.378;13.404;2024-02-14T03:45:16;9.33;;;5.30;;
18879;SDS011;9572;52.378;13.404;2024-02-14T03:47:45;9.80;;;5.83;;
18879;SDS011;9572;52.378;13.404;2024-02-14T03:50:12;12.37;;;5.87;;
18879;SDS011;9572;52.378;13.404;2024-02-14T03:52:40;13.23;;;6.00;;
18879;SDS011;9572;52.378;13.404;2024-02-14T03:55:09;10.97;;;6.40;;
18879;SDS011;9572;52.378;13.404;2024-02-14T03:57:38;11.17;;;5.87;;
18879;SDS011;9572;52.378;13.404;2024-02-14T04:00:05;10.37;;;6.17;;
18879;SDS011;9572;52.378;13.404;2024-02-14T04:02:35;9.83;;;6.43;;
18879;SDS011;9572;52.378;13.404;2024-02-14T04:05:03;11.83;;;6.77;;
18879;SDS011;9572;52.378;13.404;2024-02-14T04:07:32;8.60;;;6.00;;
18879;SDS011;9572;52.378;13.404;2024-02-14T04:09:59;8.50;;;5.60;;
18879;SDS011;9572;52.378;13.404;2024-02-14T04:12:26;11.67;;;6.50;;
18879;SDS011;9572;52.378;13.404;2024-02-14T04:14:53;12.30;;;6.40;;
18879;SDS011;9572;52.378;13.404;2024-02-14T04:17:20;11.43;;;6.43;;
18879;SDS011;9572;52.378;13.404;2024-02-14T04:19:47;11.53;;;5.90;;
18879;SDS011;9572;52.378;13.404;2024-02-14T04:22:16;10.63;;;5.87;;
18879;SDS011;9572;52.378;13.404;2024-02-14T04:24:42;8.03;;;5.73;;
18879;SDS011;9572;52.378;13.404;2024-02-14T04:27:09;10.67;;;6.73;;
18879;SDS011;9572;52.378;13.404;2024-02-14T04:29:36;11.00;;;6.50;;
18879;SDS011;9572;52.378;13.404;2024-02-14T04:32:03;11.87;;;6.27;;
18879;SDS011;9572;52.378;13.404;2024-02-14T04:34:30;12.87;;;6.33;;
18879;SDS011;9572;52.378;13.404;2024-02-14T04:36:57;12.00;;;6.23;;
18879;SDS011;9572;52.378;13.404;2024-02-14T04:39:26;13.03;;;6.13;;
18879;SDS011;9572;52.378;13.404;2024-02-14T04:41:52;12.50;;;5.83;;
18879;SDS011;9572;52.378;13.404;2024-02-14T04:44:19;9.80;;;6.00;;
18879;SDS011;9572;52.378;13.404;2024-02-14T04:46:46;12.80;;;6.37;;
18879;SDS011;9572;52.378;13.404;2024-02-14T04:49:13;9.67;;;5.93;;
18879;SDS011;9572;52.378;13.404;2024-02-14T04:51:40;14.40;;;6.50;;
18879;SDS011;9572;52.378;13.404;2024-02-14T04:54:07;10.13;;;6.30;;
18879;SDS011;9572;52.378;13.404;2024-02-14T04:56:36;8.20;;;5.60;;
18879;SDS011;9572;52.378;13.404;2024-02-14T04:59:03;11.30;;;6.37;;
18879;SDS011;9572;52.378;13.404;2024-02-14T05:01:30;12.33;;;6.60;;
18879;SDS011;9572;52.378;13.404;2024-02-14T05:03:57;12.70;;;6.90;;
18879;SDS011;9572;52.378;13.404;2024-02-14T05:06:24;10.80;;;6.53;;
18879;SDS011;9572;52.378;13.404;2024-02-14T05:08:50;10.93;;;6.47;;
18879;SDS011;9572;52.378;13.404;2024-02-14T05:11:18;10.20;;;6.70;;
18879;SDS011;9572;52.378;13.404;2024-02-14T05:13:47;14.43;;;6.67;;
18879;SDS011;9572;52.378;13.404;2024-02-14T05:16:17;12.37;;;6.37;;
18879;SDS011;9572;52.378;13.404;2024-02-14T05:18:44;10.73;;;6.80;;
18879;SDS011;9572;52.378;13.404;2024-02-14T05:21:11;11.53;;;7.00;;
18879;SDS011;9572;52.378;13.404;2024-02-14T05:23:38;9.33;;;6.47;;
18879;SDS011;9572;52.378;13.404;2024-02-14T05:26:05;11.03;;;6.73;;
18879;SDS011;9572;52.378;13.404;2024-02-14T05:28:32;13.43;;;6.30;;
18879;SDS011;9572;52.378;13.404;2024-02-14T05:31:01;15.20;;;6.47;;
18879;SDS011;9572;52.378;13.404;2024-02-14T05:33:29;13.63;;;7.20;;
18879;SDS011;9572;52.378;13.404;2024-02-14T05:35:56;11.93;;;6.90;;
18879;SDS011;9572;52.378;13.404;2024-02-14T05:38:23;13.27;;;6.30;;
18879;SDS011;9572;52.378;13.404;2024-02-14T05:40:49;11.87;;;6.90;;
18879;SDS011;9572;52.378;13.404;2024-02-14T05:43:16;13.97;;;6.50;;
18879;SDS011;9572;52.378;13.404;2024-02-14T05:45:44;13.33;;;7.00;;
18879;SDS011;9572;52.378;13.404;2024-02-14T05:48:12;12.87;;;6.83;;
18879;SDS011;9572;52.378;13.404;2024-02-14T05:50:39;9.73;;;6.37;;
18879;SDS011;9572;52.378;13.404;2024-02-14T05:53:06;10.37;;;6.60;;
18879;SDS011;9572;52.378;13.404;2024-02-14T05:55:33;10.47;;;6.80;;
18879;SDS011;9572;52.378;13.404;2024-02-14T05:58:00;14.60;;;6.80;;
18879;SDS011;9572;52.378;13.404;2024-02-14T06:00:27;9.40;;;6.17;;
18879;SDS011;9572;52.378;13.404;2024-02-14T06:02:54;10.33;;;6.13;;
18879;SDS011;9572;52.378;13.404;2024-02-14T06:05:22;11.67;;;6.40;;
18879;SDS011;9572;52.378;13.404;2024-02-14T06:07:49;9.43;;;5.93;;
18879;SDS011;9572;52.378;13.404;2024-02-14T06:10:16;11.50;;;6.07;;
18879;SDS011;9572;52.378;13.404;2024-02-14T06:12:44;11.77;;;5.73;;
18879;SDS011;9572;52.378;13.404;2024-02-14T06:15:13;11.57;;;6.10;;
18879;SDS011;9572;52.378;13.404;2024-02-14T06:17:40;8.43;;;5.70;;
18879;SDS011;9572;52.378;13.404;2024-02-14T06:20:07;11.10;;;6.30;;
18879;SDS011;9572;52.378;13.404;2024-02-14T06:22:36;15.30;;;5.60;;
18879;SDS011;9572;52.378;13.404;2024-02-14T06:25:03;8.60;;;6.10;;
18879;SDS011;9572;52.378;13.404;2024-02-14T06:27:31;11.33;;;6.27;;
18879;SDS011;9572;52.378;13.404;2024-02-14T06:29:58;7.77;;;5.87;;
18879;SDS011;9572;52.378;13.404;2024-02-14T06:32:25;9.20;;;5.47;;
18879;SDS011;9572;52.378;13.404;2024-02-14T06:34:52;9.07;;;6.00;;
18879;SDS011;9572;52.378;13.404;2024-02-14T06:37:19;10.27;;;5.80;;
18879;SDS011;9572;52.378;13.404;2024-02-14T06:39:47;11.83;;;5.77;;
18879;SDS011;9572;52.378;13.404;2024-02-14T06:42:15;12.53;;;6.57;;
18879;SDS011;9572;52.378;13.404;2024-02-14T06:44:41;9.37;;;5.93;;
18879;SDS011;9572;52.378;13.404;2024-02-14T06:47:08;9.30;;;5.70;;
18879;SDS011;9572;52.378;13.404;2024-02-14T06:49:35;10.60;;;5.90;;
18879;SDS011;9572;52.378;13.404;2024-02-14T06:52:03;9.70;;;5.70;;
18879;SDS011;9572;52.378;13.404;2024-02-14T06:54:30;12.67;;;6.03;;
18879;SDS011;9572;52.378;13.404;2024-02-14T06:56:58;8.10;;;5.80;;
18879;SDS011;9572;52.378;13.404;2024-02-14T06:59:26;8.93;;;5.67;;
18879;SDS011;9572;52.378;13.404;2024-02-14T07:01:53;8.03;;;5.73;;
18879;SDS011;9572;52.378;13.404;2024-02-14T07:04:20;8.67;;;5.70;;
18879;SDS011;9572;52.378;13.404;2024-02-14T07:06:50;9.67;;;4.77;;
18879;SDS011;9572;52.378;13.404;2024-02-14T07:09:18;7.40;;;4.30;;
18879;SDS011;9572;52.378;13.404;2024-02-14T07:11:44;9.67;;;5.10;;
18879;SDS011;9572;52.378;13.404;2024-02-14T07:14:13;10.90;;;4.67;;
18879;SDS011;9572;52.378;13.404;2024-02-14T07:16:40;7.03;;;4.70;;
18879;SDS011;9572;52.378;13.404;2024-02-14T07:19:07;7.67;;;4.20;;
18879;SDS011;9572;52.378;13.404;2024-02-14T07:21:34;7.67;;;4.63;;
18879;SDS011;9572;52.378;13.404;2024-02-14T07:24:03;10.43;;;4.93;;
18879;SDS011;9572;52.378;13.404;2024-02-14T07:26:30;7.83;;;4.33;;
18879;SDS011;9572;52.378;13.404;2024-02-14T07:28:57;8.50;;;4.70;;
18879;SDS011;9572;52.378;13.404;2024-02-14T07:31:27;5.67;;;4.13;;
18879;SDS011;9572;52.378;13.404;2024-02-14T07:33:56;7.67;;;4.17;;
18879;SDS011;9572;52.378;13.404;2024-02-14T07:36:23;6.83;;;4.07;;
18879;SDS011;9572;52.378;13.404;2024-02-14T07:38:50;9.87;;;4.27;;
18879;SDS011;9572;52.378;13.404;2024-02-14T07:41:17;8.20;;;4.10;;
18879;SDS011;9572;52.378;13.404;2024-02-14T07:43:44;9.53;;;4.67;;
18879;SDS011;9572;52.378;13.404;2024-02-14T07:46:11;10.23;;;4.77;;
18879;SDS011;9572;52.378;13.404;2024-02-14T07:48:43;7.53;;;3.90;;
18879;SDS011;9572;52.378;13.404;2024-02-14T07:51:10;12.43;;;3.70;;
18879;SDS011;9572;52.378;13.404;2024-02-14T07:53:37;7.03;;;3.63;;
18879;SDS011;9572;52.378;13.404;2024-02-14T07:56:04;6.53;;;3.13;;
18879;SDS011;9572;52.378;13.404;2024-02-14T07:58:32;8.43;;;3.20;;
18879;SDS011;9572;52.378;13.404;2024-02-14T08:00:58;6.17;;;3.27;;
18879;SDS011;9572;52.378;13.404;2024-02-14T08:03:25;8.87;;;3.70;;
18879;SDS011;9572;52.378;13.404;2024-02-14T08:05:54;5.23;;;2.77;;
18879;SDS011;9572;52.378;13.404;2024-02-14T08:08:21;4.67;;;3.13;;
18879;SDS011;9572;52.378;13.404;2024-02-14T08:10:50;7.07;;;3.40;;
18879;SDS011;9572;52.378;13.404;2024-02-14T08:13:17;6.03;;;3.50;;
18879;SDS011;9572;52.378;13.404;2024-02-14T08:15:44;6.43;;;3.30;;
18879;SDS011;9572;52.378;13.404;2024-02-14T08:18:11;5.07;;;3.17;;
18879;SDS011;9572;52.378;13.404;2024-02-14T08:20:38;3.73;;;2.47;;
18879;SDS011;9572;52.378;13.404;2024-02-14T08:23:07;3.87;;;2.60;;
18879;SDS011;9572;52.378;13.404;2024-02-14T08:25:34;4.47;;;2.90;;
18879;SDS011;9572;52.378;13.404;2024-02-14T08:28:01;6.30;;;3.27;;
18879;SDS011;9572;52.378;13.404;2024-02-14T08:30:28;6.00;;;2.83;;
18879;SDS011;9572;52.378;13.404;2024-02-14T08:32:56;4.90;;;2.70;;
18879;SDS011;9572;52.378;13.404;2024-02-14T08:35:23;5.47;;;2.57;;
18879;SDS011;9572;52.378;13.404;2024-02-14T08:37:49;4.73;;;2.70;;
18879;SDS011;9572;52.378;13.404;2024-02-14T08:40:18;3.40;;;2.67;;
18879;SDS011;9572;52.378;13.404;2024-02-14T08:42:45;4.30;;;3.03;;
18879;SDS011;9572;52.378;13.404;2024-02-14T08:45:12;3.50;;;2.77;;
18879;SDS011;9572;52.378;13.404;2024-02-14T08:47:39;3.93;;;2.63;;
18879;SDS011;9572;52.378;13.404;2024-02-14T08:50:09;5.20;;;3.00;;
18879;SDS011;9572;52.378;13.404;2024-02-14T08:52:36;6.00;;;3.27;;
18879;SDS011;9572;52.378;13.404;2024-02-14T08:55:04;6.90;;;3.30;;
18879;SDS011;9572;52.378;13.404;2024-02-14T08:57:34;4.87;;;2.80;;
18879;SDS011;9572;52.378;13.404;2024-02-14T09:00:01;9.50;;;2.83;;
18879;SDS011;9572;52.378;13.404;2024-02-14T09:02:29;3.63;;;2.60;;
18879;SDS011;9572;52.378;13.404;2024-02-14T09:04:56;4.40;;;3.00;;
18879;SDS011;9572;52.378;13.404;2024-02-14T09:07:23;6.03;;;3.03;;
18879;SDS011;9572;52.378;13.404;2024-02-14T09:09:50;3.40;;;2.30;;
18879;SDS011;9572;52.378;13.404;2024-02-14T09:12:16;4.77;;;2.67;;
18879;SDS011;9572;52.378;13.404;2024-02-14T09:14:45;6.17;;;2.63;;
18879;SDS011;9572;52.378;13.404;2024-02-14T09:17:12;4.23;;;1.93;;
18879;SDS011;9572;52.378;13.404;2024-02-14T09:19:38;6.30;;;1.90;;
18879;SDS011;9572;52.378;13.404;2024-02-14T09:22:05;4.07;;;2.30;;
18879;SDS011;9572;52.378;13.404;2024-02-14T09:24:32;2.93;;;1.93;;
18879;SDS011;9572;52.378;13.404;2024-02-14T09:26:59;5.17;;;2.10;;
18879;SDS011;9572;52.378;13.404;2024-02-14T09:29:27;3.23;;;2.00;;
18879;SDS011;9572;52.378;13.404;2024-02-14T09:31:55;3.57;;;2.10;;
18879;SDS011;9572;52.378;13.404;2024-02-14T09:34:22;5.00;;;1.90;;
18879;SDS011;9572;52.378;13.404;2024-02-14T09:36:50;5.17;;;1.77;;
18879;SDS011;9572;52.378;13.404;2024-02-14T09:39:18;2.63;;;1.90;;
18879;SDS011;9572;52.378;13.404;2024-02-14T09:41:46;5.70;;;2.27;;
18879;SDS011;9572;52.378;13.404;2024-02-14T09:44:19;5.40;;;1.80;;
18879;SDS011;9572;52.378;13.404;2024-02-14T09:46:48;4.20;;;2.00;;
18879;SDS011;9572;52.378;13.404;2024-02-14T09:49:17;4.10;;;1.97;;
18879;SDS011;9572;52.378;13.404;2024-02-14T09:51:45;5.43;;;2.17;;
18879;SDS011;9572;52.378;13.404;2024-02-14T09:54:15;3.50;;;1.80;;
18879;SDS011;9572;52.378;13.404;2024-02-14T09:56:45;6.07;;;2.80;;
18879;SDS011;9572;52.378;13.404;2024-02-14T09:59:18;3.73;;;1.93;;
18879;SDS011;9572;52.378;13.404;2024-02-14T10:01:46;3.67;;;2.10;;
18879;SDS011;9572;52.378;13.404;2024-02-14T10:04:17;4.87;;;2.03;;
18879;SDS011;9572;52.378;13.404;2024-02-14T10:06:45;5.73;;;2.20;;
18879;SDS011;9572;52.378;13.404;2024-02-14T10:09:17;4.00;;;2.10;;
18879;SDS011;9572;52.378;13.404;2024-02-14T10:11:45;2.83;;;2.30;;
18879;SDS011;9572;52.378;13.404;2024-02-14T10:14:12;4.07;;;2.20;;
18879;SDS011;9572;52.378;13.404;2024-02-14T10:16:39;9.27;;;2.43;;
18879;SDS011;9572;52.378;13.404;2024-02-14T10:19:13;6.93;;;2.43;;
18879;SDS011;9572;52.378;13.404;2024-02-14T10:21:42;3.70;;;1.93;;
18879;SDS011;9572;52.378;13.404;2024-02-14T10:24:09;4.60;;;1.83;;
18879;SDS011;9572;52.378;13.404;2024-02-14T10:26:36;4.43;;;2.27;;
18879;SDS011;9572;52.378;13.404;2024-02-14T10:29:05;4.53;;;2.07;;
18879;SDS011;9572;52.378;13.404;2024-02-14T10:31:33;4.10;;;2.10;;
18879;SDS011;9572;52.378;13.404;2024-02-14T10:34:00;6.80;;;2.47;;
18879;SDS011;9572;52.378;13.404;2024-02-14T10:36:31;3.70;;;2.03;;
18879;SDS011;9572;52.378;13.404;2024-02-14T10:39:02;7.07;;;2.63;;
18879;SDS011;9572;52.378;13.404;2024-02-14T10:41:32;9.03;;;2.93;;
18879;SDS011;9572;52.378;13.404;2024-02-14T10:44:01;4.63;;;2.23;;
18879;SDS011;9572;52.378;13.404;2024-02-14T10:46:29;4.50;;;2.50;;
18879;SDS011;9572;52.378;13.404;2024-02-14T10:49:00;5.23;;;2.47;;
18879;SDS011;9572;52.378;13.404;2024-02-14T10:51:30;7.87;;;2.60;;
18879;SDS011;9572;52.378;13.404;2024-02-14T10:53:57;5.63;;;2.67;;
18879;SDS011;9572;52.378;13.404;2024-02-14T10:56:28;6.00;;;2.80;;
18879;SDS011;9572;52.378;13.404;2024-02-14T10:58:56;2.70;;;2.10;;
18879;SDS011;9572;52.378;13.404;2024-02-14T11:01:24;3.40;;;2.20;;
18879;SDS011;9572;52.378;13.404;2024-02-14T11:03:52;5.73;;;2.40;;
18879;SDS011;9572;52.378;13.404;2024-02-14T11:06:21;4.93;;;2.83;;
18879;SDS011;9572;52.378;13.404;2024-02-14T11:08:57;5.10;;;2.60;;
18879;SDS011;9572;52.378;13.404;2024-02-14T11:11:29;5.15;;;3.10;;
18879;SDS011;9572;52.378;13.404;2024-02-14T11:13:56;5.07;;;2.50;;
18879;SDS011;9572;52.378;13.404;2024-02-14T11:16:25;4.27;;;2.47;;
18879;SDS011;9572;52.378;13.404;2024-02-14T11:18:53;4.73;;;2.50;;
18879;SDS011;9572;52.378;13.404;2024-02-14T11:21:27;3.10;;;2.53;;
18879;SDS011;9572;52.378;13.404;2024-02-14T11:23:56;5.97;;;3.13;;
18879;SDS011;9572;52.378;13.404;2024-02-14T11:26:24;6.30;;;2.73;;
18879;SDS011;9572;52.378;13.404;2024-02-14T11:29:00;7.73;;;2.67;;
18879;SDS011;9572;52.378;13.404;2024-02-14T11:31:32;4.17;;;2.70;;
18879;SDS011;9572;52.378;13.404;2024-02-14T11:34:04;9.20;;;3.00;;
18879;SDS011;9572;52.378;13.404;2024-02-14T11:36:33;4.30;;;3.00;;
18879;SDS011;9572;52.378;13.404;2024-02-14T11:39:02;6.10;;;2.77;;
18879;SDS011;9572;52.378;13.404;2024-02-14T11:41:32;4.23;;;2.47;;
18879;SDS011;9572;52.378;13.404;2024-02-14T11:44:02;8.07;;;2.90;;
18879;SDS011;9572;52.378;13.404;2024-02-14T11:46:30;3.47;;;2.63;;
18879;SDS011;9572;52.378;13.404;2024-02-14T11:48:57;4.67;;;2.33;;
18879;SDS011;9572;52.378;13.404;2024-02-14T11:51:26;5.83;;;2.93;;
18879;SDS011;9572;52.378;13.404;2024-02-14T11:53:53;4.43;;;2.90;;
18879;SDS011;9572;52.378;13.404;2024-02-14T11:56:21;4.67;;;2.97;;
18879;SDS011;9572;52.378;13.404;2024-02-14T11:58:48;6.10;;;3.00;;
18879;SDS011;9572;52.378;13.404;2024-02-14T12:01:17;8.93;;;2.80;;
18879;SDS011;9572;52.378;13.404;2024-02-14T12:03:44;6.47;;;2.63;;
18879;SDS011;9572;52.378;13.404;2024-02-14T12:06:12;3.07;;;2.20;;
18879;SDS011;9572;52.378;13.404;2024-02-14T12:08:40;10.90;;;4.33;;
18879;SDS011;9572;52.378;13.404;2024-02-14T12:11:07;6.40;;;3.10;;
18879;SDS011;9572;52.378;13.404;2024-02-14T12:13:35;10.67;;;3.07;;
18879;SDS011;9572;52.378;13.404;2024-02-14T12:16:03;6.13;;;2.83;;
18879;SDS011;9572;52.378;13.404;2024-02-14T12:18:34;5.27;;;3.03;;
18879;SDS011;9572;52.378;13.404;2024-02-14T12:21:04;4.30;;;2.93;;
18879;SDS011;9572;52.378;13.404;2024-02-14T12:23:33;4.53;;;2.90;;
18879;SDS011;9572;52.378;13.404;2024-02-14T12:26:01;7.20;;;3.43;;
18879;SDS011;9572;52.378;13.404;2024-02-14T12:28:28;5.83;;;3.00;;
18879;SDS011;9572;52.378;13.404;2024-02-14T12:30:57;5.43;;;2.90;;
18879;SDS011;9572;52.378;13.404;2024-02-14T12:33:24;5.47;;;3.07;;
18879;SDS011;9572;52.378;13.404;2024-02-14T12:35:54;7.17;;;3.17;;
18879;SDS011;9572;52.378;13.404;2024-02-14T12:38:22;5.87;;;3.53;;
18879;SDS011;9572;52.378;13.404;2024-02-14T12:40:49;4.57;;;3.10;;
18879;SDS011;9572;52.378;13.404;2024-02-14T12:43:16;3.87;;;2.63;;
18879;SDS011;9572;52.378;13.404;2024-02-14T12:45:43;5.60;;;3.57;;
18879;SDS011;9572;52.378;13.404;2024-02-14T12:48:11;6.33;;;3.00;;
18879;SDS011;9572;52.378;13.404;2024-02-14T12:50:40;4.17;;;3.10;;
18879;SDS011;9572;52.378;13.404;2024-02-14T12:53:14;6.10;;;3.07;;
18879;SDS011;9572;52.378;13.404;2024-02-14T12:55:41;7.27;;;2.90;;
18879;SDS011;9572;52.378;13.404;2024-02-14T12:58:07;4.87;;;3.23;;
18879;SDS011;9572;52.378;13.404;2024-02-14T13:00:35;7.70;;;3.30;;
18879;SDS011;9572;52.378;13.404;2024-02-14T13:03:03;8.50;;;3.53;;
18879;SDS011;9572;52.378;13.404;2024-02-14T13:05:30;8.83;;;3.73;;
18879;SDS011;9572;52.378;13.404;2024-02-14T13:07:57;6.90;;;3.60;;
18879;SDS011;9572;52.378;13.404;2024-02-14T13:10:26;7.20;;;3.13;;
18879;SDS011;9572;52.378;13.404;2024-02-14T13:12:53;5.53;;;3.40;;
18879;SDS011;9572;52.378;13.404;2024-02-14T13:15:19;7.63;;;3.40;;
18879;SDS011;9572;52.378;13.404;2024-02-14T13:17:46;4.93;;;3.30;;
18879;SDS011;9572;52.378;13.404;2024-02-14T13:20:13;5.70;;;3.27;;
18879;SDS011;9572;52.378;13.404;2024-02-14T13:22:41;7.10;;;3.67;;
18879;SDS011;9572;52.378;13.404;2024-02-14T13:25:08;9.57;;;3.40;;
18879;SDS011;9572;52.378;13.404;2024-02-14T13:27:36;6.27;;;3.30;;
18879;SDS011;9572;52.378;13.404;2024-02-14T13:30:04;6.13;;;3.37;;
18879;SDS011;9572;52.378;13.404;2024-02-14T13:32:32;10.00;;;3.70;;
18879;SDS011;9572;52.378;13.404;2024-02-14T13:34:59;6.90;;;3.20;;
18879;SDS011;9572;52.378;13.404;2024-02-14T13:37:31;4.90;;;3.17;;
18879;SDS011;9572;52.378;13.404;2024-02-14T13:39:58;8.73;;;3.40;;
18879;SDS011;9572;52.378;13.404;2024-02-14T13:42:26;5.27;;;3.07;;
18879;SDS011;9572;52.378;13.404;2024-02-14T13:44:54;6.70;;;3.40;;
18879;SDS011;9572;52.378;13.404;2024-02-14T13:47:21;7.40;;;3.77;;
18879;SDS011;9572;52.378;13.404;2024-02-14T13:49:49;7.30;;;3.70;;
18879;SDS011;9572;52.378;13.404;2024-02-14T13:52:16;5.37;;;3.70;;
18879;SDS011;9572;52.378;13.404;2024-02-14T13:54:45;6.50;;;3.67;;
18879;SDS011;9572;52.378;13.404;2024-02-14T13:57:12;4.67;;;3.27;;
18879;SDS011;9572;52.378;13.404;2024-02-14T13:59:39;6.07;;;3.80;;
18879;SDS011;9572;52.378;13.404;2024-02-14T14:02:08;4.63;;;3.10;;
18879;SDS011;9572;52.378;13.404;2024-02-14T14:04:35;6.50;;;3.00;;
18879;SDS011;9572;52.378;13.404;2024-02-14T14:07:03;8.10;;;3.20;;
18879;SDS011;9572;52.378;13.404;2024-02-14T14:09:30;4.23;;;3.17;;
18879;SDS011;9572;52.378;13.404;2024-02-14T14:11:58;7.10;;;3.20;;
18879;SDS011;9572;52.378;13.404;2024-02-14T14:14:24;3.97;;;2.97;;
18879;SDS011;9572;52.378;13.404;2024-02-14T14:16:52;5.90;;;3.43;;
18879;SDS011;9572;52.378;13.404;2024-02-14T14:19:20;7.10;;;3.23;;
18879;SDS011;9572;52.378;13.404;2024-02-14T14:21:47;6.80;;;3.53;;
18879;SDS011;9572;52.378;13.404;2024-02-14T14:24:14;5.47;;;3.13;;
18879;SDS011;9572;52.378;13.404;2024-02-14T14:26:41;4.90;;;3.13;;
18879;SDS011;9572;52.378;13.404;2024-02-14T14:29:08;6.07;;;2.73;;
18879;SDS011;9572;52.378;13.404;2024-02-14T14:31:35;7.43;;;2.73;;
18879;SDS011;9572;52.378;13.404;2024-02-14T14:34:02;5.20;;;3.10;;
18879;SDS011;9572;52.378;13.404;2024-02-14T14:36:30;4.97;;;3.10;;
18879;SDS011;9572;52.378;13.404;2024-02-14T14:38:58;4.10;;;3.20;;
18879;SDS011;9572;52.378;13.404;2024-02-14T14:41:25;8.87;;;3.63;;
18879;SDS011;9572;52.378;13.404;2024-02-14T14:43:53;7.40;;;3.37;;
18879;SDS011;9572;52.378;13.404;2024-02-14T14:46:20;7.23;;;2.97;;
18879;SDS011;9572;52.378;13.404;2024-02-14T14:48:47;5.60;;;2.93;;
18879;SDS011;9572;52.378;13.404;2024-02-14T14:51:14;5.37;;;2.73;;
18879;SDS011;9572;52.378;13.404;2024-02-14T14:53:42;7.53;;;3.10;;